createdAt,value
2023-01-11T00:02:13.822Z,10.83
2023-01-11T00:04:42.857Z,10.95
2023-01-11T00:07:10.476Z,10.98
2023-01-11T00:09:38.373Z,10.98
2023-01-11T00:12:06.071Z,11.04
2023-01-11T00:14:33.762Z,11.16
2023-01-11T00:17:01.336Z,11.16
2023-01-11T00:19:28.943Z,11.15
2023-01-11T00:21:57.969Z,11.23
2023-01-11T00:24:25.639Z,11.26
2023-01-11T00:26:53.179Z,11.36
2023-01-11T00:29:20.823Z,11.34
2023-01-11T00:31:48.393Z,11.36
2023-01-11T00:34:15.990Z,11.37
2023-01-11T00:36:43.529Z,11.44
2023-01-11T00:39:12.510Z,11.50
2023-01-11T00:41:58.154Z,11.50
2023-01-11T00:44:43.248Z,11.52
2023-01-11T00:47:30.963Z,11.39
2023-01-11T00:49:58.527Z,11.67
2023-01-11T00:52:26.060Z,11.66
2023-01-11T00:54:55.260Z,11.69
2023-01-11T00:57:23.107Z,11.71
2023-01-11T00:59:50.701Z,11.79
2023-01-11T01:02:18.683Z,11.81
2023-01-11T01:04:46.397Z,11.79
2023-01-11T01:07:13.966Z,11.81
2023-01-11T01:09:41.797Z,11.83
2023-01-11T01:12:10.802Z,11.81
2023-01-11T01:14:37.617Z,11.87
2023-01-11T01:17:07.131Z,11.87
2023-01-11T01:19:36.220Z,11.90
2023-01-11T01:22:03.890Z,11.89
2023-01-11T01:24:32.434Z,11.96
2023-01-11T01:27:00.034Z,11.98
2023-01-11T01:29:28.970Z,11.98
2023-01-11T01:31:56.551Z,12.06
2023-01-11T01:34:24.145Z,12.13
2023-01-11T01:36:51.773Z,12.07
2023-01-11T01:39:19.336Z,12.03
2023-01-11T01:41:46.890Z,12.05
2023-01-11T01:44:53.332Z,12.10
2023-01-11T01:47:21.330Z,12.03
2023-01-11T01:49:49.001Z,12.06
2023-01-11T01:52:16.678Z,12.08
2023-01-11T01:54:45.645Z,12.07
2023-01-11T01:57:14.331Z,12.14
2023-01-11T01:59:42.577Z,12.18
2023-01-11T02:02:12.107Z,12.14
2023-01-11T02:04:40.917Z,12.20
2023-01-11T02:07:09.929Z,12.22
2023-01-11T02:09:40.053Z,12.25
2023-01-11T02:12:08.047Z,12.28
2023-01-11T02:14:35.677Z,12.32
2023-01-11T02:17:03.290Z,12.32
2023-01-11T02:19:41.590Z,11.96
2023-01-11T02:22:16.362Z,12.13
2023-01-11T02:24:54.728Z,12.13
2023-01-11T02:27:43.951Z,11.73
2023-01-11T02:30:17.652Z,11.97
2023-01-11T02:32:55.477Z,12.07
2023-01-11T02:35:28.026Z,12.10
2023-01-11T02:38:00.269Z,12.04
2023-01-11T02:40:30.788Z,11.83
2023-01-11T02:43:21.344Z,12.07
2023-01-11T02:45:51.616Z,12.04
2023-01-11T02:48:21.766Z,12.04
2023-01-11T02:50:51.692Z,12.02
2023-01-11T02:53:22.782Z,12.05
2023-01-11T02:55:52.380Z,12.02
2023-01-11T02:58:22.098Z,12.11
2023-01-11T03:00:49.708Z,12.13
2023-01-11T03:03:19.077Z,12.08
2023-01-11T03:05:50.264Z,12.13
2023-01-11T03:08:37.795Z,12.07
2023-01-11T03:11:06.731Z,12.18
2023-01-11T03:13:42.438Z,12.14
2023-01-11T03:16:16.415Z,12.09
2023-01-11T03:18:49.684Z,12.14
2023-01-11T03:21:23.792Z,12.21
2023-01-11T03:23:56.784Z,12.20
2023-01-11T03:26:29.421Z,12.17
2023-01-11T03:29:06.557Z,12.19
2023-01-11T03:31:35.310Z,12.01
2023-01-11T03:34:07.841Z,12.04
2023-01-11T03:36:36.599Z,12.22
2023-01-11T03:39:06.694Z,12.13
2023-01-11T03:41:35.898Z,12.03
2023-01-11T03:44:06.737Z,12.30
2023-01-11T03:46:35.704Z,12.05
2023-01-11T03:49:05.783Z,12.33
2023-01-11T03:51:38.257Z,12.32
2023-01-11T03:54:07.264Z,12.44
2023-01-11T03:56:37.191Z,12.37
2023-01-11T03:59:06.555Z,12.32
2023-01-11T04:01:34.147Z,12.31
2023-01-11T04:04:01.861Z,12.34
2023-01-11T04:06:29.509Z,12.45
2023-01-11T04:08:57.117Z,12.55
2023-01-11T04:11:24.871Z,12.54
2023-01-11T04:13:52.469Z,12.33
2023-01-11T04:16:21.410Z,12.59
2023-01-11T04:18:49.020Z,12.36
2023-01-11T04:21:16.583Z,12.63
2023-01-11T04:23:44.330Z,12.61
2023-01-11T04:26:11.896Z,12.66
2023-01-11T04:28:39.536Z,12.67
2023-01-11T04:31:07.161Z,12.57
2023-01-11T04:33:36.247Z,12.66
2023-01-11T04:36:05.902Z,12.68
2023-01-11T04:38:34.204Z,12.67
2023-01-11T04:41:15.879Z,12.53
2023-01-11T04:43:43.673Z,12.71
2023-01-11T04:46:11.276Z,12.74
2023-01-11T04:48:40.314Z,12.73
2023-01-11T04:51:07.928Z,12.79
2023-01-11T04:53:35.714Z,12.81
2023-01-11T04:56:03.485Z,12.76
2023-01-11T04:58:31.469Z,12.80
2023-01-11T05:00:59.165Z,12.76
2023-01-11T05:03:26.765Z,12.83
2023-01-11T05:05:58.863Z,12.83
2023-01-11T05:08:26.496Z,12.88
2023-01-11T05:10:54.406Z,12.88
2023-01-11T05:13:22.055Z,12.92
2023-01-11T05:15:49.739Z,12.94
2023-01-11T05:18:17.281Z,12.88
2023-01-11T05:20:44.950Z,12.96
2023-01-11T05:23:13.902Z,13.02
2023-01-11T05:25:41.645Z,13.00
2023-01-11T05:28:09.480Z,13.04
2023-01-11T05:30:37.143Z,13.04
2023-01-11T05:33:05.012Z,13.06
2023-01-11T05:35:32.634Z,13.08
2023-01-11T05:38:00.217Z,13.08
2023-01-11T05:40:29.264Z,13.13
2023-01-11T05:42:56.791Z,13.14
2023-01-11T05:45:29.268Z,13.16
2023-01-11T05:47:56.852Z,13.14
2023-01-11T05:50:24.445Z,13.18
2023-01-11T05:52:52.019Z,13.25
2023-01-11T05:55:20.819Z,13.26
2023-01-11T05:57:50.937Z,13.22
2023-01-11T06:00:19.271Z,13.28
2023-01-11T06:02:47.196Z,13.26
2023-01-11T06:05:14.944Z,13.33
2023-01-11T06:07:42.590Z,13.31
2023-01-11T06:10:11.329Z,13.31
2023-01-11T06:12:38.906Z,13.37
2023-01-11T06:15:09.152Z,12.15
2023-01-11T06:17:36.825Z,13.41
2023-01-11T06:20:05.086Z,13.44
2023-01-11T06:22:32.797Z,13.45
2023-01-11T06:25:00.389Z,13.42
2023-01-11T06:27:28.119Z,13.42
2023-01-11T06:29:55.810Z,13.48
2023-01-11T06:32:25.833Z,13.52
2023-01-11T06:34:53.540Z,13.55
2023-01-11T06:37:21.199Z,13.54
2023-01-11T06:39:48.785Z,13.64
2023-01-11T06:42:16.405Z,13.62
2023-01-11T06:44:43.969Z,13.68
2023-01-11T06:47:11.618Z,13.68
2023-01-11T06:49:40.568Z,13.69
2023-01-11T06:52:08.155Z,13.74
2023-01-11T06:54:35.780Z,13.78
2023-01-11T06:57:03.444Z,13.80
2023-01-11T06:59:31.047Z,13.67
2023-01-11T07:01:58.795Z,13.80
2023-01-11T07:04:26.398Z,13.84
2023-01-11T07:06:56.283Z,13.60
2023-01-11T07:09:23.859Z,13.82
2023-01-11T07:11:51.625Z,13.86
2023-01-11T07:14:20.910Z,13.87
2023-01-11T07:16:48.559Z,13.83
2023-01-11T07:19:18.035Z,13.89
2023-01-11T07:21:45.632Z,13.90
2023-01-11T07:24:14.704Z,13.94
2023-01-11T07:26:42.276Z,13.87
2023-01-11T07:29:10.085Z,13.92
2023-01-11T07:31:37.683Z,13.94
2023-01-11T07:34:05.278Z,13.95
2023-01-11T07:36:36.742Z,13.94
2023-01-11T07:39:04.632Z,14.01
2023-01-11T07:41:51.403Z,14.04
2023-01-11T07:44:19.106Z,14.06
2023-01-11T07:46:49.292Z,14.15
2023-01-11T07:49:17.346Z,14.16
2023-01-11T07:51:47.453Z,14.19
2023-01-11T07:54:15.371Z,14.12
2023-01-11T07:56:52.543Z,14.26
2023-01-11T07:59:20.250Z,13.90
2023-01-11T08:01:47.867Z,14.30
2023-01-11T08:04:15.469Z,14.33
2023-01-11T08:06:43.174Z,14.34
2023-01-11T08:09:10.866Z,14.09
2023-01-11T08:11:55.914Z,14.35
2023-01-11T08:14:40.180Z,14.39
2023-01-11T08:17:07.882Z,14.37
2023-01-11T08:19:35.764Z,14.40
2023-01-11T08:22:03.397Z,14.33
2023-01-11T08:24:31.073Z,14.33
2023-01-11T08:26:58.774Z,14.44
2023-01-11T08:29:27.824Z,14.42
2023-01-11T08:31:55.413Z,14.50
2023-01-11T08:34:23.254Z,14.52
2023-01-11T08:36:50.816Z,14.50
2023-01-11T08:39:18.557Z,14.26
2023-01-11T08:41:46.151Z,14.55
2023-01-11T08:44:14.985Z,14.57
2023-01-11T08:46:44.075Z,14.54
2023-01-11T08:49:12.867Z,14.13
2023-01-11T08:51:40.495Z,14.19
2023-01-11T08:54:09.590Z,14.59
2023-01-11T08:56:37.445Z,14.16
2023-01-11T08:59:05.196Z,14.47
2023-01-11T09:01:33.763Z,14.56
2023-01-11T09:04:09.417Z,14.56
2023-01-11T09:06:43.335Z,14.47
2023-01-11T09:09:12.012Z,14.65
2023-01-11T09:11:54.984Z,14.61
2023-01-11T09:14:22.727Z,14.54
2023-01-11T09:16:50.462Z,14.51
2023-01-11T09:19:19.507Z,14.46
2023-01-11T09:21:47.311Z,14.37
2023-01-11T09:24:14.902Z,13.88
2023-01-11T09:26:43.608Z,14.33
2023-01-11T09:29:11.388Z,14.28
2023-01-11T09:31:39.252Z,14.26
2023-01-11T09:34:08.115Z,14.21
2023-01-11T09:36:39.885Z,14.21
2023-01-11T09:39:10.392Z,14.23
2023-01-11T09:41:50.848Z,14.20
2023-01-11T09:44:21.427Z,14.10
2023-01-11T09:46:51.097Z,14.12
2023-01-11T09:49:20.170Z,14.09
2023-01-11T09:51:49.888Z,14.20
2023-01-11T09:54:19.597Z,14.19
2023-01-11T09:56:49.783Z,14.20
2023-01-11T09:59:22.916Z,13.79
2023-01-11T10:01:53.171Z,13.89
2023-01-11T10:04:36.772Z,14.18
2023-01-11T10:07:22.993Z,14.27
2023-01-11T10:18:32.083Z,14.24
2023-01-11T10:19:24.548Z,13.92
2023-01-11T10:21:45.538Z,14.35
2023-01-11T10:24:18.866Z,14.22
2023-01-11T10:26:46.441Z,14.37
2023-01-11T10:29:38.459Z,14.11
2023-01-11T10:32:18.660Z,14.32
2023-01-11T10:35:17.571Z,14.30
2023-01-11T10:37:54.333Z,14.29
2023-01-11T10:40:39.739Z,13.94
2023-01-11T10:43:14.119Z,14.26
2023-01-11T10:45:44.278Z,14.14
2023-01-11T10:48:14.644Z,14.08
2023-01-11T10:50:46.730Z,14.36
2023-01-11T10:53:17.018Z,14.22
2023-01-11T10:55:48.356Z,14.32
2023-01-11T10:58:24.779Z,13.98
2023-01-11T11:00:57.036Z,14.34
2023-01-11T11:03:41.427Z,14.33
2023-01-11T11:06:10.847Z,14.29
2023-01-11T11:08:41.096Z,14.33
2023-01-11T11:11:13.564Z,12.75
2023-01-11T11:13:46.675Z,13.23
2023-01-11T11:16:21.485Z,13.20
2023-01-11T11:18:55.684Z,14.38
2023-01-11T11:21:25.068Z,13.49
2023-01-11T11:23:56.009Z,14.55
2023-01-11T11:26:26.635Z,12.76
2023-01-11T11:29:01.209Z,13.20
2023-01-11T11:31:29.566Z,13.21
2023-01-11T11:33:57.517Z,14.21
2023-01-11T11:36:30.184Z,12.33
2023-01-11T11:39:05.771Z,12.68
2023-01-11T11:41:37.211Z,14.53
2023-01-11T11:44:10.560Z,13.29
2023-01-11T11:46:38.560Z,13.69
2023-01-11T11:49:13.458Z,14.01
2023-01-11T11:51:47.536Z,13.57
2023-01-11T11:54:22.859Z,13.49
2023-01-11T11:56:52.280Z,12.31
2023-01-11T11:59:20.897Z,12.27
2023-01-11T12:01:50.162Z,13.73
2023-01-11T12:04:19.026Z,11.86
2023-01-11T12:06:49.206Z,13.87
2023-01-11T12:09:24.464Z,13.96
2023-01-11T12:12:00.001Z,12.62
2023-01-11T12:14:29.472Z,14.39
2023-01-11T12:16:58.089Z,13.89
2023-01-11T12:19:29.950Z,14.00
2023-01-11T12:22:22.179Z,13.50
2023-01-11T12:25:03.577Z,13.49
2023-01-11T12:27:37.832Z,13.98
2023-01-11T12:30:15.352Z,15.77
2023-01-11T12:33:10.201Z,16.59
2023-01-11T12:35:52.811Z,16.18
2023-01-11T12:38:31.930Z,18.08
2023-01-11T12:41:08.548Z,19.12
2023-01-11T12:43:44.715Z,19.34
2023-01-11T12:46:17.910Z,19.21
2023-01-11T12:48:54.803Z,18.53
2023-01-11T12:51:28.720Z,17.86
2023-01-11T12:54:06.231Z,18.38
2023-01-11T12:56:51.735Z,18.94
2023-01-11T12:59:28.308Z,18.68
2023-01-11T13:01:59.485Z,18.40
2023-01-11T13:04:44.757Z,17.86
2023-01-11T13:07:15.866Z,18.01
2023-01-11T13:09:49.735Z,17.73
2023-01-11T13:12:19.797Z,17.41
2023-01-11T13:14:55.739Z,16.86
2023-01-11T13:17:29.622Z,16.94
2023-01-11T13:20:08.126Z,16.78
2023-01-11T13:22:37.672Z,16.38
2023-01-11T13:25:12.157Z,16.20
2023-01-11T13:27:39.776Z,16.13
2023-01-11T13:30:12.367Z,15.86
2023-01-11T13:32:40.100Z,15.73
2023-01-11T13:35:15.484Z,15.49
2023-01-11T13:37:45.581Z,15.19
2023-01-11T13:40:18.927Z,15.31
2023-01-11T13:42:47.773Z,15.14
2023-01-11T13:45:18.587Z,14.93
2023-01-11T13:47:47.891Z,15.15
2023-01-11T13:50:19.776Z,15.06
2023-01-11T13:52:54.580Z,15.07
2023-01-11T13:55:26.429Z,15.07
2023-01-11T13:57:56.988Z,15.06
2023-01-11T14:00:29.016Z,14.90
2023-01-11T14:02:59.597Z,14.94
2023-01-11T14:05:28.307Z,14.93
2023-01-11T14:08:02.537Z,14.95
2023-01-11T14:10:54.823Z,15.07
2023-01-11T14:14:24.332Z,15.07
2023-01-11T14:17:16.773Z,14.97
2023-01-11T14:19:46.079Z,14.77
2023-01-11T14:22:15.989Z,14.94
2023-01-11T14:24:49.583Z,15.00
2023-01-11T14:27:29.480Z,15.05
2023-01-11T14:30:05.093Z,14.86
2023-01-11T14:32:58.433Z,14.99
2023-01-11T14:35:47.952Z,15.00
2023-01-11T14:38:43.877Z,14.95
2023-01-11T14:41:20.955Z,14.88
2023-01-11T14:43:58.004Z,14.85
2023-01-11T14:46:36.019Z,14.86
2023-01-11T14:49:10.886Z,14.85
2023-01-11T14:51:46.500Z,14.84
2023-01-11T14:54:15.390Z,14.76
2023-01-11T14:56:51.119Z,14.75
2023-01-11T14:59:35.696Z,14.71
2023-01-11T15:02:27.575Z,14.69
2023-01-11T15:05:09.863Z,14.55
2023-01-11T15:07:50.874Z,14.51
2023-01-11T15:10:41.788Z,14.46
2023-01-11T15:13:13.603Z,14.33
2023-01-11T15:15:59.167Z,14.22
2023-01-11T15:18:27.005Z,14.13
2023-01-11T15:20:56.824Z,14.03
2023-01-11T15:23:24.426Z,14.08
2023-01-11T15:26:02.852Z,13.95
2023-01-11T15:28:36.271Z,13.99
2023-01-11T15:31:04.299Z,13.96
2023-01-11T15:33:46.235Z,13.98
2023-01-11T15:36:15.408Z,13.89
2023-01-11T15:38:49.220Z,13.87
2023-01-11T15:41:35.817Z,13.85
2023-01-11T15:44:16.068Z,13.84
2023-01-11T15:47:23.642Z,13.74
2023-01-11T15:50:14.446Z,13.74
2023-01-11T15:53:22.346Z,13.67
2023-01-11T15:56:23.787Z,13.58
2023-01-11T15:59:06.160Z,13.49
2023-01-11T16:01:35.556Z,13.41
2023-01-11T16:04:42.100Z,13.39
2023-01-11T16:07:36.449Z,13.32
2023-01-11T16:10:24.176Z,13.30
2023-01-11T16:13:00.786Z,13.25
2023-01-11T16:15:37.640Z,13.26
2023-01-11T16:18:11.977Z,13.03
2023-01-11T16:20:40.462Z,13.35
2023-01-11T16:23:08.360Z,13.33
2023-01-11T16:25:39.332Z,13.34
2023-01-11T16:28:17.920Z,13.39
2023-01-11T16:30:46.604Z,13.43
2023-01-11T16:33:15.247Z,13.44
2023-01-11T16:35:43.599Z,13.44
2023-01-11T16:38:15.861Z,13.44
2023-01-11T16:40:44.160Z,13.43
2023-01-11T16:43:19.531Z,13.41
2023-01-11T16:45:48.496Z,13.18
2023-01-11T16:48:17.878Z,13.44
2023-01-11T16:50:48.661Z,13.43
2023-01-11T16:53:19.096Z,13.28
2023-01-11T16:55:56.727Z,13.42
2023-01-11T16:58:29.548Z,13.39
2023-01-11T17:01:00.222Z,13.43
2023-01-11T17:03:30.621Z,13.47
2023-01-11T17:06:17.499Z,13.41
2023-01-11T17:08:47.387Z,13.33
2023-01-11T17:11:27.112Z,13.41
2023-01-11T17:14:17.927Z,13.38
2023-01-11T17:16:47.184Z,13.39
2023-01-11T17:19:16.029Z,13.36
2023-01-11T17:24:18.364Z,13.29
2023-01-11T17:26:47.918Z,13.26
2023-01-11T17:29:19.064Z,12.93
2023-01-11T17:31:46.957Z,13.16
2023-01-11T17:34:18.496Z,13.09
2023-01-11T17:36:46.317Z,13.06
2023-01-11T17:39:17.853Z,13.01
2023-01-11T17:42:03.128Z,12.91
2023-01-11T17:44:49.531Z,12.96
2023-01-11T17:47:17.267Z,12.86
2023-01-11T17:49:44.956Z,12.87
2023-01-11T17:52:17.660Z,12.84
2023-01-11T17:54:45.403Z,12.87
2023-01-11T17:57:13.080Z,12.80
2023-01-11T17:59:42.076Z,12.83
2023-01-11T18:02:14.113Z,12.71
2023-01-11T18:04:42.029Z,12.79
2023-01-11T18:07:13.850Z,12.80
2023-01-11T18:09:44.552Z,12.79
2023-01-11T18:12:14.588Z,12.87
2023-01-11T18:14:50.197Z,12.93
2023-01-11T18:17:31.899Z,13.00
2023-01-11T18:19:59.709Z,12.97
2023-01-11T18:22:29.721Z,13.05
2023-01-11T18:24:57.760Z,13.08
2023-01-11T18:27:30.051Z,12.97
2023-01-11T18:30:02.428Z,13.15
2023-01-11T18:32:35.460Z,13.20
2023-01-11T18:35:03.290Z,13.23
2023-01-11T18:37:30.872Z,13.15
2023-01-11T18:39:59.185Z,13.18
2023-01-11T18:42:29.373Z,13.16
2023-01-11T18:44:59.446Z,13.14
2023-01-11T18:47:28.444Z,13.17
2023-01-11T18:49:56.285Z,13.18
2023-01-11T18:52:27.328Z,13.22
2023-01-11T18:54:55.004Z,13.23
2023-01-11T18:57:23.716Z,13.20
2023-01-11T18:59:52.163Z,13.15
2023-01-11T19:02:24.531Z,12.86
2023-01-11T19:04:53.029Z,13.13
2023-01-11T19:07:20.760Z,13.15
2023-01-11T19:09:48.475Z,13.15
2023-01-11T19:12:16.417Z,13.14
2023-01-11T19:14:44.233Z,13.15
2023-01-11T19:17:12.019Z,13.08
2023-01-11T19:19:41.502Z,13.06
2023-01-11T19:22:09.265Z,12.97
2023-01-11T19:24:37.102Z,12.94
2023-01-11T19:27:05.034Z,12.86
2023-01-11T19:29:33.028Z,12.87
2023-01-11T19:32:00.927Z,12.81
2023-01-11T19:34:28.751Z,12.76
2023-01-11T19:36:59.263Z,12.68
2023-01-11T19:39:27.381Z,12.62
2023-01-11T19:41:56.577Z,12.59
2023-01-11T19:44:24.773Z,12.59
2023-01-11T19:46:57.082Z,12.56
2023-01-11T19:49:37.141Z,12.53
2023-01-11T19:52:12.145Z,12.52
2023-01-11T19:54:41.727Z,12.57
2023-01-11T19:57:10.184Z,12.57
2023-01-11T19:59:37.799Z,12.52
2023-01-11T20:02:06.171Z,12.56
2023-01-11T20:04:33.872Z,12.52
2023-01-11T20:07:01.749Z,12.46
2023-01-11T20:09:30.861Z,12.47
2023-01-11T20:11:58.867Z,12.43
2023-01-11T20:14:26.830Z,12.47
2023-01-11T20:16:54.556Z,12.46
2023-01-11T20:19:22.277Z,12.43
2023-01-11T20:21:49.861Z,12.43
2023-01-11T20:24:18.636Z,12.43
2023-01-11T20:26:47.741Z,12.38
2023-01-11T20:29:15.514Z,12.36
2023-01-11T20:31:43.130Z,12.38
2023-01-11T20:34:11.365Z,12.39
2023-01-11T20:36:38.973Z,12.36
2023-01-11T20:39:07.022Z,12.39
2023-01-11T20:41:51.056Z,12.34
2023-01-11T20:44:21.549Z,12.32
2023-01-11T20:46:50.482Z,12.36
2023-01-11T20:49:18.114Z,12.27
2023-01-11T20:51:46.154Z,12.42
2023-01-11T20:54:14.198Z,12.43
2023-01-11T20:56:41.979Z,12.44
2023-01-11T21:01:39.075Z,12.45
2023-01-11T21:04:07.686Z,12.21
2023-01-11T21:06:36.351Z,12.41
2023-01-11T21:09:04.001Z,12.54
2023-01-11T21:11:32.134Z,12.50
2023-01-11T21:14:00.368Z,12.52
2023-01-11T21:16:28.776Z,12.58
2023-01-11T21:18:58.639Z,12.57
2023-01-11T21:21:28.598Z,12.42
2023-01-11T21:23:57.849Z,12.63
2023-01-11T21:26:26.310Z,12.56
2023-01-11T21:28:55.556Z,12.64
2023-01-11T21:31:23.360Z,12.64
2023-01-11T21:33:50.990Z,12.66
2023-01-11T21:36:20.912Z,12.63
2023-01-11T21:38:48.585Z,12.47
2023-01-11T21:41:17.056Z,12.50
2023-01-11T21:43:44.864Z,12.49
2023-01-11T21:46:12.986Z,12.38
2023-01-11T21:48:40.710Z,12.33
2023-01-11T21:51:09.357Z,12.00
2023-01-11T21:53:38.595Z,12.28
2023-01-11T21:56:07.300Z,12.15
2023-01-11T21:58:34.956Z,12.12
2023-01-11T22:01:10.465Z,12.17
2023-01-11T22:03:38.093Z,12.15
2023-01-11T22:06:09.969Z,12.08
2023-01-11T22:08:39.641Z,12.00
2023-01-11T22:11:07.445Z,12.08
2023-01-11T22:13:36.171Z,12.08
2023-01-11T22:16:04.325Z,12.04
2023-01-11T22:18:32.089Z,12.00
2023-01-11T22:21:05.533Z,11.93
2023-01-11T22:23:33.207Z,11.88
2023-01-11T22:26:05.354Z,11.83
2023-01-11T22:28:33.070Z,11.81
2023-01-11T22:31:05.094Z,11.75
2023-01-11T22:33:33.814Z,11.81
2023-01-11T22:36:01.406Z,11.79
2023-01-11T22:38:28.978Z,11.79
2023-01-11T22:41:00.269Z,11.80
2023-01-11T22:43:29.571Z,11.86
2023-01-11T22:45:58.139Z,11.90
2023-01-11T22:48:25.787Z,11.94
2023-01-11T22:50:53.621Z,11.91
2023-01-11T22:53:21.196Z,11.98
2023-01-11T22:55:48.885Z,11.99
2023-01-11T22:58:16.504Z,12.07
2023-01-11T23:00:45.621Z,12.10
2023-01-11T23:03:14.647Z,12.21
2023-01-11T23:05:45.421Z,12.21
2023-01-11T23:08:14.001Z,12.27
2023-01-11T23:10:41.795Z,12.32
2023-01-11T23:13:28.854Z,12.18
2023-01-11T23:15:57.755Z,12.33
2023-01-11T23:18:25.428Z,12.43
2023-01-11T23:20:53.098Z,12.44
2023-01-11T23:25:56.695Z,12.57
2023-01-11T23:28:24.295Z,12.59
2023-01-11T23:30:51.887Z,12.62
2023-01-11T23:33:20.925Z,12.66
2023-01-11T23:35:56.285Z,12.68
2023-01-11T23:38:23.953Z,12.65
2023-01-11T23:41:08.908Z,12.66
2023-01-11T23:43:38.283Z,12.64
2023-01-11T23:46:20.231Z,12.65
2023-01-11T23:48:49.512Z,12.56
2023-01-11T23:51:17.093Z,12.54
2023-01-11T23:53:44.821Z,12.55
2023-01-11T23:56:12.496Z,12.56
2023-01-11T23:58:40.114Z,12.58
